createdAt,value
2022-12-17T00:01:49.632Z,100394.03
2022-12-17T00:03:57.838Z,100398.13
2022-12-17T00:06:02.644Z,100398.39
2022-12-17T00:08:06.990Z,100403.28
2022-12-17T00:10:12.397Z,100408.37
2022-12-17T00:12:16.746Z,100407.19
2022-12-17T00:14:21.095Z,100408.66
2022-12-17T00:16:25.664Z,100410.24
2022-12-17T00:18:30.225Z,100410.7
2022-12-17T00:20:34.608Z,100412.8
2022-12-17T00:22:38.948Z,100417.09
2022-12-17T00:24:43.289Z,100419.02
2022-12-17T00:26:47.654Z,100418.02
2022-12-17T00:28:52.782Z,100418.14
2022-12-17T00:30:59.555Z,100420.7
2022-12-17T00:33:04.277Z,100421.9
2022-12-17T00:35:08.642Z,100418.27
2022-12-17T00:37:13.278Z,100414.91
2022-12-17T00:39:17.636Z,100418.08
2022-12-17T00:41:22.082Z,100419.27
2022-12-17T00:43:26.460Z,100424.3
2022-12-17T00:45:30.832Z,100425.03
2022-12-17T00:47:35.191Z,100426.73
2022-12-17T00:49:39.553Z,100428.45
2022-12-17T00:51:43.910Z,100426.48
2022-12-17T00:53:48.224Z,100437.14
2022-12-17T00:55:52.584Z,100436.7
2022-12-17T00:57:57.106Z,100443.34
2022-12-17T01:00:01.472Z,100443.32
2022-12-17T01:02:06.318Z,100438.7
2022-12-17T01:04:10.900Z,100437.08
2022-12-17T01:06:15.230Z,100444.56
2022-12-17T01:08:19.575Z,100445.63
2022-12-17T01:10:23.932Z,100453.3
2022-12-17T01:12:28.294Z,100447
2022-12-17T01:14:32.753Z,100445.61
2022-12-17T01:16:37.283Z,100451.77
2022-12-17T01:18:41.764Z,100451.63
2022-12-17T01:20:46.095Z,100457.73
2022-12-17T01:22:50.472Z,100455.36
2022-12-17T01:24:57.160Z,100457.25
2022-12-17T01:27:01.491Z,100458.59
2022-12-17T01:29:05.836Z,100456
2022-12-17T01:31:10.352Z,100455.79
2022-12-17T01:33:14.880Z,100459.52
2022-12-17T01:35:19.306Z,100462.55
2022-12-17T01:37:23.674Z,100458.21
2022-12-17T01:39:28.068Z,100456.73
2022-12-17T01:41:32.441Z,100449.77
2022-12-17T01:43:37.557Z,100449.52
2022-12-17T01:45:42.302Z,100451.05
2022-12-17T01:47:46.767Z,100453.59
2022-12-17T01:49:51.118Z,100452.95
2022-12-17T01:51:55.483Z,100456.09
2022-12-17T01:53:59.814Z,100461.2
2022-12-17T01:56:04.151Z,100463.21
2022-12-17T01:58:08.527Z,100462.33
2022-12-17T02:00:12.866Z,100466.66
2022-12-17T02:02:17.691Z,100465.53
2022-12-17T02:04:22.345Z,100466.19
2022-12-17T02:06:26.690Z,100470.63
2022-12-17T02:08:31.061Z,100474.61
2022-12-17T02:10:35.420Z,100472.13
2022-12-17T02:12:39.788Z,100475.39
2022-12-17T02:14:44.264Z,100473.02
2022-12-17T02:16:48.719Z,100476.42
2022-12-17T02:18:53.266Z,100477.7
2022-12-17T02:20:57.615Z,100478.34
2022-12-17T02:23:01.960Z,100478.44
2022-12-17T02:25:06.315Z,100482.08
2022-12-17T02:27:10.676Z,100474.89
2022-12-17T02:29:15.195Z,100473.34
2022-12-17T02:31:19.653Z,100475.28
2022-12-17T02:33:24.164Z,100480.23
2022-12-17T02:35:28.509Z,100480.06
2022-12-17T02:37:32.853Z,100486.2
2022-12-17T02:39:37.187Z,100486.48
2022-12-17T02:41:41.582Z,100482.45
2022-12-17T02:43:45.949Z,100484.43
2022-12-17T02:45:50.413Z,100484.45
2022-12-17T02:47:54.952Z,100483.23
2022-12-17T02:49:59.299Z,100486.02
2022-12-17T02:52:03.660Z,100494.84
2022-12-17T02:55:56.161Z,100498.74
2022-12-17T02:58:00.478Z,100495.26
2022-12-17T03:00:04.806Z,100494.38
2022-12-17T03:02:09.649Z,100500.46
2022-12-17T03:04:14.306Z,100501.55
2022-12-17T03:06:18.660Z,100503.66
2022-12-17T03:08:23.012Z,100506.89
2022-12-17T03:10:27.459Z,100501.05
2022-12-17T03:12:31.833Z,100504.77
2022-12-17T03:14:36.222Z,100505.06
2022-12-17T03:16:40.603Z,100509.44
2022-12-17T03:18:45.027Z,100512.85
2022-12-17T03:20:49.436Z,100511.59
2022-12-17T03:22:53.786Z,100510.98
2022-12-17T03:24:58.139Z,100508.53
2022-12-17T03:27:02.485Z,100505.61
2022-12-17T03:29:06.798Z,100501.44
2022-12-17T03:31:11.425Z,100496.22
2022-12-17T03:33:15.987Z,100497.45
2022-12-17T03:35:20.325Z,100499.63
2022-12-17T03:37:24.767Z,100506.09
2022-12-17T03:39:29.136Z,100509.8
2022-12-17T03:41:33.479Z,100514.92
2022-12-17T03:43:38.625Z,100518.41
2022-12-17T03:45:43.230Z,100520.37
2022-12-17T03:47:47.660Z,100521.91
2022-12-17T03:49:52.023Z,100528.97
2022-12-17T03:51:56.326Z,100534.13
2022-12-17T03:54:00.701Z,100537.98
2022-12-17T03:56:05.057Z,100544.21
2022-12-17T03:58:09.385Z,100542.05
2022-12-17T04:00:13.745Z,100538.24
2022-12-17T04:02:18.630Z,100542.08
2022-12-17T04:04:23.366Z,100552.09
2022-12-17T04:06:27.703Z,100561.18
2022-12-17T04:08:32.041Z,100560.6
2022-12-17T04:10:36.459Z,100559.52
2022-12-17T04:12:40.812Z,100561.44
2022-12-17T04:14:45.127Z,100565.13
2022-12-17T04:16:49.497Z,100566.78
2022-12-17T04:18:53.832Z,100574.58
2022-12-17T04:20:58.172Z,100574.99
2022-12-17T04:23:02.518Z,100582.08
2022-12-17T04:25:06.960Z,100582.38
2022-12-17T04:27:11.352Z,100584.39
2022-12-17T04:29:15.686Z,100589.36
2022-12-17T04:31:20.237Z,100590.31
2022-12-17T04:33:24.811Z,100593.46
2022-12-17T04:35:29.147Z,100587.8
2022-12-17T04:37:33.507Z,100592.2
2022-12-17T04:39:37.952Z,100600.2
2022-12-17T04:41:42.296Z,100605.97
2022-12-17T04:43:46.646Z,100608.98
2022-12-17T04:45:51.128Z,100614.41
2022-12-17T04:47:55.520Z,100609.56
2022-12-17T04:49:59.898Z,100609.05
2022-12-17T04:52:04.262Z,100613.69
2022-12-17T04:54:08.596Z,100611.61
2022-12-17T04:56:12.931Z,100613.36
2022-12-17T04:58:17.267Z,100613.06
2022-12-17T05:00:21.622Z,100609.05
2022-12-17T05:02:26.273Z,100611.06
2022-12-17T05:04:31.056Z,100613.59
2022-12-17T05:06:35.464Z,100618.85
2022-12-17T05:08:42.696Z,100617.45
2022-12-17T05:10:47.054Z,100618.85
2022-12-17T05:12:51.451Z,100625.13
2022-12-17T05:14:57.370Z,100630.22
2022-12-17T05:17:01.744Z,100629.78
2022-12-17T05:19:06.103Z,100629.95
2022-12-17T05:21:10.442Z,100633.94
2022-12-17T05:23:14.826Z,100634.65
2022-12-17T05:25:19.180Z,100637.02
2022-12-17T05:27:23.550Z,100637.52
2022-12-17T05:29:27.878Z,100639.48
2022-12-17T05:31:32.432Z,100635.2
2022-12-17T05:33:37.798Z,100635.04
2022-12-17T05:35:42.820Z,100633.45
2022-12-17T05:37:47.183Z,100640.83
2022-12-17T05:39:51.680Z,100645.88
2022-12-17T05:41:56.010Z,100647.77
2022-12-17T05:44:00.376Z,100647.67
2022-12-17T05:46:04.888Z,100650.94
2022-12-17T05:48:09.284Z,100653.45
2022-12-17T05:50:13.671Z,100659.93
2022-12-17T05:52:17.999Z,100662.2
2022-12-17T05:54:22.366Z,100660.45
2022-12-17T05:56:26.704Z,100664.32
2022-12-17T05:58:31.047Z,100662.31
2022-12-17T06:00:35.373Z,100673.59
2022-12-17T06:02:39.938Z,100676.73
2022-12-17T06:04:44.517Z,100680.44
2022-12-17T06:06:48.879Z,100679.72
2022-12-17T06:08:53.216Z,100685.07
2022-12-17T06:10:57.595Z,100687.41
2022-12-17T06:13:01.943Z,100682.11
2022-12-17T06:15:06.278Z,100683.78
2022-12-17T06:17:10.648Z,100690.2
2022-12-17T06:19:15.227Z,100694.47
2022-12-17T06:21:19.542Z,100694.83
2022-12-17T06:23:23.894Z,100703.13
2022-12-17T06:25:28.255Z,100702.41
2022-12-17T06:27:32.643Z,100708.01
2022-12-17T06:29:36.977Z,100712.05
2022-12-17T06:31:41.497Z,100713.64
2022-12-17T06:33:46.014Z,100716.38
2022-12-17T06:35:50.377Z,100713.2
2022-12-17T06:37:54.896Z,100719.55
2022-12-17T06:39:59.250Z,100721.56
2022-12-17T06:42:05.738Z,100726.83
2022-12-17T06:44:10.159Z,100726.9
2022-12-17T06:46:14.654Z,100724.86
2022-12-17T06:48:19.192Z,100725.95
2022-12-17T06:50:23.533Z,100724.59
2022-12-17T06:52:27.889Z,100732.03
2022-12-17T06:54:32.255Z,100734.3
2022-12-17T06:56:36.628Z,100733.48
2022-12-17T06:58:40.949Z,100746
2022-12-17T07:00:45.451Z,100752.31
2022-12-17T07:02:50.202Z,100756.05
2022-12-17T07:04:54.934Z,100758.3
2022-12-17T07:06:59.283Z,100756.87
2022-12-17T07:09:03.657Z,100758
2022-12-17T07:11:08.020Z,100770.66
2022-12-17T07:13:13.682Z,100776.38
2022-12-17T07:15:18.039Z,100781.84
2022-12-17T07:17:22.406Z,100786.58
2022-12-17T07:19:28.724Z,100791.23
2022-12-17T07:21:33.105Z,100793.41
2022-12-17T07:23:38.416Z,100797.58
2022-12-17T07:25:47.196Z,100801.33
2022-12-17T07:27:51.543Z,100801.64
2022-12-17T07:29:55.913Z,100808.47
2022-12-17T07:32:00.451Z,100796.02
2022-12-17T07:34:04.977Z,100801.16
2022-12-17T07:36:09.307Z,100803.08
2022-12-17T07:38:13.643Z,100808.95
2022-12-17T07:40:18.042Z,100812.64
2022-12-17T07:42:22.390Z,100816.64
2022-12-17T07:44:26.717Z,100815.02
2022-12-17T07:46:31.119Z,100821.43
2022-12-17T07:48:35.474Z,100822.52
2022-12-17T07:50:39.818Z,100825.73
2022-12-17T07:52:44.191Z,100824.77
2022-12-17T07:54:48.598Z,100828.73
2022-12-17T07:56:52.953Z,100833.54
2022-12-17T07:58:57.307Z,100841.59
2022-12-17T08:01:01.757Z,100838.52
2022-12-17T08:03:06.767Z,100836.44
2022-12-17T08:05:11.486Z,100839.44
2022-12-17T08:07:15.886Z,100833.27
2022-12-17T08:09:20.271Z,100840.7
2022-12-17T08:11:24.645Z,100843.03
2022-12-17T08:13:28.997Z,100843.44
2022-12-17T08:15:33.357Z,100845.48
2022-12-17T08:17:37.809Z,100848.79
2022-12-17T08:19:42.440Z,100852.78
2022-12-17T08:21:46.770Z,100858.23
2022-12-17T08:23:51.174Z,100855
2022-12-17T08:25:55.527Z,100855.92
2022-12-17T08:27:59.908Z,100854.69
2022-12-17T08:30:05.739Z,100859.4
2022-12-17T08:32:10.121Z,100861.17
2022-12-17T08:34:14.486Z,100857.83
2022-12-17T08:36:18.844Z,100862.4
2022-12-17T08:38:23.191Z,100864.2
2022-12-17T08:40:27.572Z,100866.02
2022-12-17T08:42:31.940Z,100870.96
2022-12-17T08:44:36.350Z,100885.19
2022-12-17T08:46:40.668Z,100881.4
2022-12-17T08:48:45.030Z,100884.16
2022-12-17T08:50:49.442Z,100888.83
2022-12-17T08:52:53.816Z,100889.89
2022-12-17T08:54:58.264Z,100886.07
2022-12-17T08:57:02.631Z,100888.83
2022-12-17T08:59:06.996Z,100888.94
2022-12-17T09:01:11.613Z,100891.5
2022-12-17T09:03:16.314Z,100896.17
2022-12-17T09:05:20.840Z,100898.45
2022-12-17T09:07:25.218Z,100898.22
2022-12-17T09:09:29.614Z,100901.8
2022-12-17T09:11:33.988Z,100907.97
2022-12-17T09:13:39.273Z,100903.3
2022-12-17T09:15:43.729Z,100906.2
2022-12-17T09:17:48.119Z,100907.19
2022-12-17T09:19:52.503Z,100917.59
2022-12-17T09:21:56.876Z,100912.38
2022-12-17T09:24:01.318Z,100909.64
2022-12-17T09:26:05.703Z,100909.64
2022-12-17T09:28:10.092Z,100915.03
2022-12-17T09:30:14.434Z,100913.39
2022-12-17T09:32:18.803Z,100913.94
2022-12-17T09:34:23.153Z,100911
2022-12-17T09:36:27.534Z,100916.47
2022-12-17T09:38:31.885Z,100915.75
2022-12-17T09:40:36.271Z,100917.97
2022-12-17T09:42:42.538Z,100918.23
2022-12-17T09:44:54.550Z,100921.72
2022-12-17T09:46:58.925Z,100920.21
2022-12-17T09:49:03.260Z,100929.22
2022-12-17T09:51:07.654Z,100929.7
2022-12-17T09:53:12.039Z,100930
2022-12-17T09:55:16.390Z,100930.17
2022-12-17T09:57:20.784Z,100926.08
2022-12-17T09:59:25.173Z,100925.98
2022-12-17T10:01:29.794Z,100927.48
2022-12-17T10:03:35.170Z,100928.09
2022-12-17T10:05:40.497Z,100927.58
2022-12-17T10:07:44.912Z,100932.8
2022-12-17T10:09:49.306Z,100928.57
2022-12-17T10:11:53.693Z,100928.67
2022-12-17T10:13:58.060Z,100929.42
2022-12-17T10:16:02.824Z,100934.4
2022-12-17T10:18:07.232Z,100940.33
2022-12-17T10:20:11.687Z,100941.42
2022-12-17T10:22:16.050Z,100936.38
2022-12-17T10:24:20.424Z,100942.59
2022-12-17T10:26:24.832Z,100943.41
2022-12-17T10:28:29.184Z,100944.33
2022-12-17T10:30:33.549Z,100951.94
2022-12-17T10:32:37.889Z,100957.02
2022-12-17T10:34:42.276Z,100955.34
2022-12-17T10:36:46.645Z,100958.38
2022-12-17T10:38:51.001Z,100965.96
2022-12-17T10:40:55.392Z,100970.94
2022-12-17T10:42:59.766Z,100973.02
2022-12-17T10:45:04.138Z,100975.48
2022-12-17T10:47:08.545Z,100981.72
2022-12-17T10:49:13.088Z,100981.95
2022-12-17T10:51:17.508Z,100984.79
2022-12-17T10:53:21.939Z,100981.16
2022-12-17T10:55:26.385Z,100982.3
2022-12-17T10:57:30.827Z,100988.16
2022-12-17T10:59:35.234Z,100986.7
2022-12-17T11:01:40.030Z,100988.78
2022-12-17T11:03:44.879Z,100988.84
2022-12-17T11:05:49.434Z,100989.66
2022-12-17T11:07:57.259Z,100990.38
2022-12-17T11:10:10.258Z,100993.02
2022-12-17T11:12:14.817Z,100987.48
2022-12-17T11:14:19.213Z,100994.2
2022-12-17T11:16:23.754Z,100999.42
2022-12-17T11:18:28.335Z,100997.71
2022-12-17T11:20:32.718Z,101002.08
2022-12-17T11:22:37.153Z,101006.62
2022-12-17T11:24:41.507Z,101012.17
2022-12-17T11:26:45.928Z,101010
2022-12-17T11:28:50.338Z,101016.23
2022-12-17T11:30:54.890Z,101020.91
2022-12-17T11:32:59.376Z,101019.34
2022-12-17T11:35:03.801Z,101019.84
2022-12-17T11:37:08.169Z,101026.33
2022-12-17T11:39:12.568Z,101028.65
2022-12-17T11:41:16.923Z,101030.16
2022-12-17T11:43:21.293Z,101040.95
2022-12-17T11:45:25.635Z,101038.52
2022-12-17T11:47:29.979Z,101038.52
2022-12-17T11:49:34.365Z,101041.36
2022-12-17T11:51:38.709Z,101043.98
2022-12-17T11:53:43.102Z,101048.05
2022-12-17T11:55:47.474Z,101043.06
2022-12-17T11:57:51.816Z,101052.64
2022-12-17T12:00:04.441Z,101050.94
2022-12-17T12:02:09.048Z,101050.29
2022-12-17T12:04:13.551Z,101050.42
2022-12-17T12:06:18.236Z,101050.58
2022-12-17T12:08:22.615Z,101046.69
2022-12-17T12:10:27.007Z,101049.05
2022-12-17T12:12:31.398Z,101055.57
2022-12-17T12:14:35.766Z,101048.33
2022-12-17T12:16:44.755Z,101056.09
2022-12-17T12:18:49.327Z,101059.19
2022-12-17T12:20:53.692Z,101057.91
2022-12-17T12:22:58.063Z,101059.16
2022-12-17T12:25:02.478Z,101059.81
2022-12-17T12:27:06.881Z,101049.62
2022-12-17T12:29:11.249Z,101057.52
2022-12-17T12:31:15.768Z,101058.33
2022-12-17T12:33:20.258Z,101058.75
2022-12-17T12:35:24.651Z,101065.58
2022-12-17T12:37:29.017Z,101070.83
2022-12-17T12:39:33.416Z,101070.49
2022-12-17T12:41:37.793Z,101066.64
2022-12-17T12:43:42.197Z,101071.05
2022-12-17T12:45:46.680Z,101076.28
2022-12-17T12:47:51.217Z,101078.5
2022-12-17T12:49:55.665Z,101085.02
2022-12-17T12:52:00.036Z,101091.38
2022-12-17T12:54:04.414Z,101085.36
2022-12-17T12:56:08.815Z,101094.41
2022-12-17T12:58:13.154Z,101095.55
2022-12-17T13:00:17.630Z,101096.53
2022-12-17T13:02:22.531Z,101098.55
2022-12-17T13:04:27.118Z,101099
2022-12-17T13:06:31.500Z,101100.77
2022-12-17T13:08:36.647Z,101105.48
2022-12-17T13:10:42.011Z,101103.3
2022-12-17T13:12:46.391Z,101108.45
2022-12-17T13:14:50.756Z,101111.19
2022-12-17T13:16:55.272Z,101110.03
2022-12-17T13:18:59.797Z,101117.27
2022-12-17T13:21:04.181Z,101113.73
2022-12-17T13:23:08.548Z,101115.13
2022-12-17T13:25:12.876Z,101119.36
2022-12-17T13:27:17.261Z,101119.63
2022-12-17T13:29:21.764Z,101121.06
2022-12-17T13:31:26.466Z,101123.13
2022-12-17T13:33:30.901Z,101126.84
2022-12-17T13:35:35.247Z,101131.93
2022-12-17T13:37:39.660Z,101137.28
2022-12-17T13:39:44.049Z,101138.21
2022-12-17T13:41:48.413Z,101144.7
2022-12-17T13:43:52.875Z,101150.03
2022-12-17T13:45:58.691Z,101154.23
2022-12-17T13:48:03.326Z,101156.21
2022-12-17T13:50:38.182Z,101154.33
2022-12-17T13:52:42.551Z,101155.45
2022-12-17T13:54:46.937Z,101160.38
2022-12-17T13:56:51.344Z,101164.69
2022-12-17T13:58:55.749Z,101166.94
2022-12-17T14:01:00.382Z,101165.67
2022-12-17T14:03:04.972Z,101165.88
2022-12-17T14:05:09.547Z,101167.22
2022-12-17T14:07:13.955Z,101169.13
2022-12-17T14:09:18.304Z,101171.59
2022-12-17T14:11:22.663Z,101176.44
2022-12-17T14:13:26.988Z,101183.02
2022-12-17T14:15:31.382Z,101186.13
2022-12-17T14:17:35.755Z,101189.69
2022-12-17T14:19:40.172Z,101197.23
2022-12-17T14:21:44.533Z,101192.08
2022-12-17T14:23:48.909Z,101196.95
2022-12-17T14:25:53.346Z,101200.03
2022-12-17T14:27:57.686Z,101202.67
2022-12-17T14:30:02.145Z,101206.38
2022-12-17T14:32:06.626Z,101214.2
2022-12-17T14:34:12.226Z,101217.52
2022-12-17T14:36:16.604Z,101220.16
2022-12-17T14:38:39.217Z,101229.48
2022-12-17T14:40:53.308Z,101233.95
2022-12-17T14:42:57.890Z,101230.53
2022-12-17T14:45:02.232Z,101236.84
2022-12-17T14:47:06.608Z,101237.26
2022-12-17T14:49:10.943Z,101246.75
2022-12-17T14:51:15.306Z,101255.91
2022-12-17T14:53:19.670Z,101250.66
2022-12-17T14:55:24.122Z,101252.27
2022-12-17T14:57:28.557Z,101248.89
2022-12-17T14:59:32.924Z,101256.53
2022-12-17T15:01:37.824Z,101260.94
2022-12-17T15:03:42.805Z,101265.72
2022-12-17T15:05:47.398Z,101267.44
2022-12-17T15:07:51.830Z,101274.97
2022-12-17T15:09:56.218Z,101270.73
2022-12-17T15:12:00.577Z,101281.66
2022-12-17T15:14:04.986Z,101281.41
2022-12-17T15:16:09.326Z,101289.91
2022-12-17T15:18:13.818Z,101284.78
2022-12-17T15:20:18.191Z,101294.2
2022-12-17T15:22:22.529Z,101289.86
2022-12-17T15:24:26.964Z,101293.45
2022-12-17T15:26:31.295Z,101295.52
2022-12-17T15:28:36.764Z,101300.95
2022-12-17T15:30:42.026Z,101306.08
2022-12-17T15:32:46.581Z,101305.97
2022-12-17T15:34:50.974Z,101308.05
2022-12-17T15:36:55.323Z,101314.23
2022-12-17T15:38:59.677Z,101313.5
2022-12-17T15:41:04.083Z,101313.2
2022-12-17T15:43:08.445Z,101315.2
2022-12-17T15:45:12.810Z,101317.73
2022-12-17T15:47:17.191Z,101320.48
2022-12-17T15:49:21.563Z,101321.91
2022-12-17T15:51:25.925Z,101323.02
2022-12-17T15:53:30.330Z,101317.27
2022-12-17T15:55:34.736Z,101319.36
2022-12-17T15:57:39.097Z,101321.34
2022-12-17T15:59:43.474Z,101328.73
2022-12-17T16:01:48.203Z,101335.34
2022-12-17T16:03:53.069Z,101336.59
2022-12-17T16:05:57.615Z,101340.88
2022-12-17T16:08:01.969Z,101341.52
2022-12-17T16:10:06.962Z,101339.09
2022-12-17T16:12:11.413Z,101341.39
2022-12-17T16:14:15.840Z,101338.88
2022-12-17T16:16:20.377Z,101339.91
2022-12-17T16:18:24.857Z,101343.42
2022-12-17T16:20:29.222Z,101347.76
2022-12-17T16:22:33.592Z,101348.2
2022-12-17T16:24:37.932Z,101354.86
2022-12-17T16:26:42.315Z,101360.77
2022-12-17T16:28:46.660Z,101365.25
2022-12-17T16:30:51.220Z,101368.27
2022-12-17T16:32:55.763Z,101373.11
2022-12-17T16:35:00.119Z,101375.86
2022-12-17T16:37:04.508Z,101378.35
2022-12-17T16:39:08.886Z,101383.13
2022-12-17T16:41:13.317Z,101384.44
2022-12-17T16:43:17.655Z,101386.1
2022-12-17T16:45:22.012Z,101393.22
2022-12-17T16:47:26.373Z,101388.42
2022-12-17T16:49:30.817Z,101391.41
2022-12-17T16:51:35.129Z,101392.83
2022-12-17T16:53:39.547Z,101389.78
2022-12-17T16:55:43.899Z,101389.25
2022-12-17T16:57:48.302Z,101389.23
2022-12-17T16:59:52.688Z,101394.8
2022-12-17T17:01:57.428Z,101397.7
2022-12-17T17:04:02.333Z,101401.11
2022-12-17T17:06:06.993Z,101402.73
2022-12-17T17:08:11.381Z,101402.48
2022-12-17T17:10:15.767Z,101409.53
2022-12-17T17:12:20.159Z,101413.77
2022-12-17T17:14:24.545Z,101414.94
2022-12-17T17:16:29.185Z,101409.44
2022-12-17T17:18:33.737Z,101406.21
2022-12-17T17:20:38.187Z,101411.09
2022-12-17T17:22:42.546Z,101412.26
2022-12-17T17:24:46.937Z,101414.05
2022-12-17T17:26:51.369Z,101415.98
2022-12-17T17:28:55.797Z,101419.5
2022-12-17T17:31:00.306Z,101424.5
2022-12-17T17:33:04.797Z,101429.05
2022-12-17T17:35:09.153Z,101433.2
2022-12-17T17:37:13.560Z,101437.23
2022-12-17T17:39:17.931Z,101442.13
2022-12-17T17:41:22.285Z,101445.61
2022-12-17T17:43:26.666Z,101448.44
2022-12-17T17:45:31.056Z,101446.59
2022-12-17T17:47:35.563Z,101449.02
2022-12-17T17:49:40.000Z,101447.08
2022-12-17T17:52:14.456Z,101451.7
2022-12-17T17:54:18.856Z,101453.85
2022-12-17T17:56:23.309Z,101453.55
2022-12-17T17:58:27.733Z,101457.3
2022-12-17T18:00:32.153Z,101453.84
2022-12-17T18:02:37.080Z,101459.36
2022-12-17T18:04:41.883Z,101461.64
2022-12-17T18:07:26.579Z,101466.55
2022-12-17T18:09:31.891Z,101466.03
2022-12-17T18:11:36.256Z,101467.16
2022-12-17T18:13:40.696Z,101467.86
2022-12-17T18:15:45.162Z,101471.55
2022-12-17T18:17:49.681Z,101474.83
2022-12-17T18:19:54.086Z,101481.44
2022-12-17T18:21:58.441Z,101480.34
2022-12-17T18:24:02.844Z,101485.38
2022-12-17T18:26:07.236Z,101493.86
2022-12-17T18:28:11.668Z,101500.2
2022-12-17T18:30:16.029Z,101497.16
2022-12-17T18:32:20.400Z,101496.36
2022-12-17T18:34:25.012Z,101495.92
2022-12-17T18:36:29.570Z,101499.4
2022-12-17T18:38:34.152Z,101497.44
2022-12-17T18:40:39.201Z,101501.92
2022-12-17T18:42:43.707Z,101505.56
2022-12-17T18:44:48.119Z,101510.27
2022-12-17T18:46:52.613Z,101511.81
2022-12-17T18:48:58.343Z,101514.14
2022-12-17T18:51:03.997Z,101516.42
2022-12-17T18:53:08.411Z,101522.3
2022-12-17T18:55:12.854Z,101522.36
2022-12-17T18:57:17.317Z,101527.39
2022-12-17T18:59:29.166Z,101530.48
2022-12-17T19:01:34.284Z,101538.5
2022-12-17T19:03:38.997Z,101540.31
2022-12-17T19:05:52.687Z,101537.34
2022-12-17T19:07:58.561Z,101541.44
2022-12-17T19:10:03.027Z,101547.58
2022-12-17T19:12:07.465Z,101552.19
2022-12-17T19:14:12.299Z,101557.42
2022-12-17T19:16:17.721Z,101554.64
2022-12-17T19:18:22.267Z,101561.86
2022-12-17T19:20:26.689Z,101562.73
2022-12-17T19:22:31.082Z,101566.44
2022-12-17T19:24:35.500Z,101568.33
2022-12-17T19:26:39.939Z,101567.52
2022-12-17T19:28:44.325Z,101563.77
2022-12-17T19:30:48.876Z,101565.28
2022-12-17T19:32:53.253Z,101575.98
2022-12-17T19:34:57.630Z,101573.35
2022-12-17T19:37:02.079Z,101577.09
2022-12-17T19:39:06.475Z,101579.81
2022-12-17T19:41:10.887Z,101580.69
2022-12-17T19:43:15.281Z,101583.21
2022-12-17T19:45:19.678Z,101585.51
2022-12-17T19:47:24.051Z,101605.02
2022-12-17T19:49:28.629Z,101592.34
2022-12-17T19:51:33.340Z,101590.05
2022-12-17T19:53:37.871Z,101591.06
2022-12-17T19:55:42.266Z,101598.09
2022-12-17T19:57:46.880Z,101603.95
2022-12-17T19:59:51.476Z,101602.37
2022-12-17T20:01:56.283Z,101603.67
2022-12-17T20:04:01.107Z,101611.1
2022-12-17T20:06:05.587Z,101613
2022-12-17T20:08:09.996Z,101617.03
2022-12-17T20:10:14.487Z,101613.2
2022-12-17T20:12:18.938Z,101609.49
2022-12-17T20:14:23.317Z,101611.92
2022-12-17T20:16:27.911Z,101615.49
2022-12-17T20:18:33.590Z,101610.28
2022-12-17T20:20:37.974Z,101627.77
2022-12-17T20:22:42.418Z,101633.23
2022-12-17T20:24:46.822Z,101634.19
2022-12-17T20:26:51.299Z,101635.59
2022-12-17T20:28:55.704Z,101641.66
2022-12-17T20:31:00.268Z,101640.98
2022-12-17T20:33:04.688Z,101643.28
2022-12-17T20:35:09.108Z,101643.41
2022-12-17T20:37:13.605Z,101641.91
2022-12-17T20:39:26.948Z,101648.05
2022-12-17T20:41:32.196Z,101651.18
2022-12-17T20:43:37.100Z,101654.16
2022-12-17T20:45:41.666Z,101655.27
2022-12-17T20:47:46.634Z,101659.08
2022-12-17T20:49:51.422Z,101660.8
2022-12-17T20:52:04.183Z,101663.36
2022-12-17T20:54:11.349Z,101662.31
2022-12-17T20:56:15.908Z,101666.14
2022-12-17T20:58:20.376Z,101671.33
2022-12-17T21:00:24.821Z,101671.17
2022-12-17T21:02:29.836Z,101674.06
2022-12-17T21:04:34.870Z,101674.15
2022-12-17T21:06:39.306Z,101672.22
2022-12-17T21:08:51.004Z,101674.8
2022-12-17T21:10:56.220Z,101671.97
2022-12-17T21:13:00.621Z,101677.34
2022-12-17T21:15:05.064Z,101678.88
2022-12-17T21:17:09.802Z,101682.7
2022-12-17T21:19:14.628Z,101690.11
2022-12-17T21:21:19.813Z,101694.27
2022-12-17T21:23:24.887Z,101693.06
2022-12-17T21:25:30.243Z,101694.02
2022-12-17T21:27:34.754Z,101695.38
2022-12-17T21:29:39.283Z,101695.07
2022-12-17T21:31:44.245Z,101698
2022-12-17T21:33:49.516Z,101698.61
2022-12-17T21:35:54.915Z,101697.41
2022-12-17T21:37:59.415Z,101698.55
2022-12-17T21:40:03.814Z,101697.69
2022-12-17T21:42:08.301Z,101703.84
2022-12-17T21:44:14.520Z,101708.8
2022-12-17T21:46:20.882Z,101710.65
2022-12-17T21:48:26.561Z,101711.22
2022-12-17T21:50:31.241Z,101705.88
2022-12-17T21:52:36.701Z,101709.77
2022-12-17T21:54:41.637Z,101710.63
2022-12-17T21:56:46.205Z,101709.56
2022-12-17T21:58:50.639Z,101712.73
2022-12-17T22:00:55.241Z,101714.75
2022-12-17T22:03:00.150Z,101716.47
2022-12-17T22:05:05.128Z,101721.64
2022-12-17T22:07:21.706Z,101727.86
2022-12-17T22:10:06.568Z,101727.53
2022-12-17T22:12:56.152Z,101722.16
2022-12-17T22:15:01.700Z,101725.78
2022-12-17T22:17:06.920Z,101730.39
2022-12-17T22:19:11.399Z,101728.98
2022-12-17T22:21:15.824Z,101730.48
2022-12-17T22:23:20.622Z,101727.58
2022-12-17T22:25:26.069Z,101728.98
2022-12-17T22:27:30.578Z,101731.32
2022-12-17T22:29:34.966Z,101731.13
2022-12-17T22:31:39.927Z,101732
2022-12-17T22:35:37.862Z,101735.69
2022-12-17T22:44:52.999Z,101744.04
2022-12-17T22:47:04.036Z,101752.55
2022-12-17T22:49:08.568Z,101754.06
2022-12-17T22:51:25.597Z,101746.75
2022-12-17T22:53:45.720Z,101749.38
2022-12-17T22:55:50.722Z,101753.93
2022-12-17T22:57:55.397Z,101750.15
2022-12-17T22:59:59.790Z,101751.14
2022-12-17T23:02:04.365Z,101752.44
2022-12-17T23:04:09.091Z,101753.55
2022-12-17T23:06:13.626Z,101758.61
2022-12-17T23:08:18.023Z,101755.55
2022-12-17T23:10:22.369Z,101752.56
2022-12-17T23:12:26.770Z,101749.23
2022-12-17T23:14:31.255Z,101753.61
2022-12-17T23:16:35.787Z,101756.42
2022-12-17T23:18:40.298Z,101766.06
2022-12-17T23:20:44.690Z,101769.34
2022-12-17T23:22:49.027Z,101777.44
2022-12-17T23:24:53.422Z,101771.52
2022-12-17T23:26:57.830Z,101777.97
2022-12-17T23:29:02.231Z,101780.74
2022-12-17T23:31:08.060Z,101785
2022-12-17T23:33:12.621Z,101785.7
2022-12-17T23:35:16.981Z,101789.27
2022-12-17T23:37:21.392Z,101782.34
2022-12-17T23:39:26.007Z,101785.81
2022-12-17T23:41:30.519Z,101789.22
2022-12-17T23:43:34.885Z,101785.25
2022-12-17T23:45:39.679Z,101789.53
2022-12-17T23:47:44.061Z,101791.67
2022-12-17T23:49:48.447Z,101789.23
2022-12-17T23:51:52.822Z,101786.3
2022-12-17T23:53:57.190Z,101788.06
2022-12-17T23:56:01.587Z,101794.13
2022-12-17T23:58:06.022Z,101786.66
